Time;durP1;ratioP1;P1;durP2;ratioP2;P2;SDS_P1;SDS_P2;PMS_P1;PMS_P2;Temp;Humidity;BMP_temperature;BMP_pressure;BME280_temperature;BME280_humidity;BME280_pressure;Samples;Min_cycle;Max_cycle;Signal;HPM_P1;HPM_P2
2021/08/17 00:01:10;;;;;;;16.77;8.38;;;;;;;11.39;100.00;101729.75;5150773;29;20019;-66
2021/08/17 00:03:41;;;;;;;19.02;9.27;;;;;;;11.35;100.00;101734.38;5151225;28;20035;-66
2021/08/17 00:06:12;;;;;;;18.15;9.98;;;;;;;11.34;100.00;101734.50;5151892;28;20027;-66
2021/08/17 00:08:47;;;;;;;17.08;9.70;;;;;;;11.35;100.00;101728.28;5150598;28;20039;-66
2021/08/17 00:11:18;;;;;;;20.60;10.23;;;;;;;11.34;100.00;101729.25;5151242;28;20560;-66
2021/08/17 00:13:49;;;;;;;19.75;10.07;;;;;;;11.31;100.00;101732.94;5152209;28;20086;-66
2021/08/17 00:16:21;;;;;;;22.80;11.93;;;;;;;11.32;100.00;101729.34;5151031;28;20089;-66
2021/08/17 00:18:52;;;;;;;19.75;12.10;;;;;;;11.33;100.00;101730.22;5150624;28;20031;-66
2021/08/17 00:21:24;;;;;;;22.70;12.93;;;;;;;11.33;100.00;101724.97;5151763;28;20186;-66
2021/08/17 00:23:56;;;;;;;26.05;14.70;;;;;;;11.35;100.00;101726.50;5151729;29;20034;-66
2021/08/17 00:26:28;;;;;;;26.85;14.70;;;;;;;11.38;100.00;101722.81;5150810;29;20034;-66
2021/08/17 00:28:59;;;;;;;28.77;16.42;;;;;;;11.40;100.00;101726.16;5149878;28;20035;-66
2021/08/17 00:31:30;;;;;;;32.88;17.40;;;;;;;11.42;100.00;101713.78;5150415;29;20329;-66
2021/08/17 00:34:01;;;;;;;36.92;18.65;;;;;;;11.44;100.00;101717.13;5151334;29;20267;-66
2021/08/17 00:36:33;;;;;;;38.25;19.38;;;;;;;11.50;100.00;101715.81;5151850;28;20102;-66
2021/08/17 00:39:04;;;;;;;43.25;22.02;;;;;;;11.51;100.00;101715.69;5151190;29;20038;-66
2021/08/17 00:41:38;;;;;;;51.08;23.02;;;;;;;11.58;100.00;101722.16;5152820;28;20659;-66
2021/08/17 00:44:27;;;;;;;42.22;23.08;;;;;;;11.67;100.00;101702.28;5154917;29;20110;-66
2021/08/17 00:46:59;;;;;;;43.22;23.73;;;;;;;11.65;100.00;101710.25;5154679;28;20126;-66
2021/08/17 00:49:31;;;;;;;49.20;25.33;;;;;;;11.68;100.00;101703.94;5155565;28;20114;-66
2021/08/17 00:52:05;;;;;;;49.63;26.13;;;;;;;11.71;100.00;101702.88;5154971;29;20031;-66
2021/08/17 00:54:38;;;;;;;58.33;28.35;;;;;;;11.76;100.00;101693.69;5154227;29;20130;-66
2021/08/17 00:57:12;;;;;;;46.38;25.45;;;;;;;11.80;100.00;101691.69;5154701;29;20027;-66
2021/08/17 00:59:44;;;;;;;54.25;27.52;;;;;;;11.80;100.00;101683.81;5154872;28;20082;-66
2021/08/17 01:02:15;;;;;;;50.40;27.75;;;;;;;11.82;100.00;101690.63;5153129;29;20153;-66
2021/08/17 01:04:47;;;;;;;54.67;26.73;;;;;;;11.84;100.00;101686.09;5153732;29;20393;-66
2021/08/17 01:07:18;;;;;;;52.83;27.33;;;;;;;11.89;100.00;101686.59;5155105;28;20069;-66
2021/08/17 01:09:49;;;;;;;52.63;27.48;;;;;;;11.90;100.00;101693.53;5154661;29;20034;-66
2021/08/17 01:12:20;;;;;;;53.42;27.00;;;;;;;11.88;100.00;101689.31;5153923;28;20131;-65
2021/08/17 01:14:52;;;;;;;53.63;27.45;;;;;;;11.88;100.00;101692.78;5153897;28;20023;-66
2021/08/17 01:17:23;;;;;;;56.90;27.65;;;;;;;11.88;100.00;101691.94;5154724;28;20118;-66
2021/08/17 01:19:55;;;;;;;56.67;29.00;;;;;;;11.92;100.00;101691.59;5154881;28;20027;-66
2021/08/17 01:22:26;;;;;;;52.13;26.25;;;;;;;11.91;100.00;101695.19;5154217;28;20027;-66
2021/08/17 01:24:57;;;;;;;57.55;29.25;;;;;;;11.93;100.00;101701.16;5153959;29;20067;-66
2021/08/17 01:27:29;;;;;;;55.83;27.67;;;;;;;11.93;100.00;101701.16;5153674;28;20086;-66
2021/08/17 01:30:00;;;;;;;55.90;28.50;;;;;;;11.96;100.00;101700.06;5152847;28;20031;-66
2021/08/17 01:32:31;;;;;;;55.13;27.52;;;;;;;11.96;100.00;101704.50;5154607;28;20097;-66
2021/08/17 01:35:03;;;;;;;56.50;28.63;;;;;;;11.98;100.00;101706.06;5154199;29;20035;-66
2021/08/17 01:37:35;;;;;;;60.35;30.38;;;;;;;11.99;100.00;101712.16;5152814;29;20037;-66
2021/08/17 01:40:11;;;;;;;59.72;29.65;;;;;;;12.02;100.00;101717.16;5152715;28;20023;-65
2021/08/17 01:42:46;;;;;;;62.38;30.92;;;;;;;11.99;100.00;101706.88;5154116;29;20078;-66
2021/08/17 01:45:20;;;;;;;64.65;30.15;;;;;;;11.99;100.00;101712.97;5154017;29;20511;-67
2021/08/17 01:47:53;;;;;;;62.33;31.17;;;;;;;12.00;100.00;101705.94;5153570;29;20117;-65
2021/08/17 01:50:24;;;;;;;58.97;29.20;;;;;;;12.05;100.00;101703.81;5153427;28;20039;-67
2021/08/17 01:52:56;;;;;;;54.25;30.45;;;;;;;12.06;100.00;101708.94;5152825;28;20042;-66
2021/08/17 01:55:27;;;;;;;60.85;30.60;;;;;;;12.08;100.00;101711.41;5153251;28;20486;-66
2021/08/17 01:58:02;;;;;;;59.00;29.92;;;;;;;12.13;100.00;101704.03;5153421;29;20948;-67
2021/08/17 02:00:33;;;;;;;61.58;30.75;;;;;;;12.15;100.00;101707.38;5151591;29;20090;-66
2021/08/17 02:03:04;;;;;;;55.92;30.17;;;;;;;12.18;100.00;101710.59;5153049;28;20426;-66
2021/08/17 02:05:35;;;;;;;65.28;32.28;;;;;;;12.26;100.00;101710.00;5152300;28;20425;-67
2021/08/17 02:08:08;;;;;;;60.42;31.58;;;;;;;12.30;100.00;101718.47;5153861;28;20037;-67
2021/08/17 02:10:40;;;;;;;62.72;33.35;;;;;;;12.32;100.00;101716.56;5152362;28;20110;-68
2021/08/17 02:13:11;;;;;;;59.00;31.23;;;;;;;12.33;100.00;101713.00;5152572;28;20038;-66
2021/08/17 02:15:44;;;;;;;58.90;30.98;;;;;;;12.38;100.00;101718.72;5152760;28;20023;-69
2021/08/17 02:18:17;;;;;;;59.03;30.83;;;;;;;12.43;100.00;101715.75;5154423;28;20374;-67
2021/08/17 02:20:49;;;;;;;59.72;31.02;;;;;;;12.41;100.00;101721.94;5153770;28;20027;-67
2021/08/17 02:23:20;;;;;;;58.30;29.80;;;;;;;12.42;100.00;101720.13;5152760;28;20031;-66
2021/08/17 02:25:52;;;;;;;59.97;31.48;;;;;;;12.38;100.00;101716.91;5151893;28;20023;-66
2021/08/17 02:28:23;;;;;;;52.22;28.45;;;;;;;12.38;100.00;101716.06;5152914;29;20083;-65
2021/08/17 02:30:55;;;;;;;59.03;31.35;;;;;;;12.38;100.00;101719.53;5153458;28;20044;-66
2021/08/17 02:33:26;;;;;;;60.78;30.08;;;;;;;12.40;100.00;101722.06;5152288;28;20481;-66
2021/08/17 02:35:57;;;;;;;61.85;30.55;;;;;;;12.40;100.00;101717.63;5152786;28;20065;-67
2021/08/17 02:38:29;;;;;;;61.65;30.85;;;;;;;12.36;100.00;101716.22;5153096;28;20031;-67
2021/08/17 02:41:00;;;;;;;65.55;31.35;;;;;;;12.36;100.00;101713.59;5152230;29;20049;-68
2021/08/17 02:43:31;;;;;;;56.38;29.73;;;;;;;12.36;100.00;101710.13;5153288;29;20545;-68
2021/08/17 02:46:03;;;;;;;58.15;31.10;;;;;;;12.36;100.00;101715.38;5153417;28;20072;-67
2021/08/17 02:48:34;;;;;;;59.45;29.42;;;;;;;12.35;100.00;101714.56;5153194;29;20062;-66
2021/08/17 02:51:05;;;;;;;62.70;31.38;;;;;;;12.36;100.00;101715.38;5151011;28;20078;-66
2021/08/17 02:53:37;;;;;;;64.13;31.50;;;;;;;12.35;100.00;101716.31;5151970;28;20086;-66
2021/08/17 02:56:08;;;;;;;61.45;31.38;;;;;;;12.34;100.00;101706.75;5153343;28;20031;-65
2021/08/17 02:58:39;;;;;;;54.42;29.85;;;;;;;12.33;100.00;101713.81;5151438;28;20190;-65
2021/08/17 03:01:11;;;;;;;59.58;30.08;;;;;;;12.35;100.00;101711.06;5152759;28;20477;-65
2021/08/17 03:03:42;;;;;;;55.50;29.15;;;;;;;12.34;100.00;101717.28;5152818;28;20038;-65
2021/08/17 03:06:13;;;;;;;66.10;30.08;;;;;;;12.34;100.00;101715.47;5152256;28;20023;-66
2021/08/17 03:08:45;;;;;;;65.13;30.52;;;;;;;12.35;100.00;101725.06;5151603;28;20023;-66
2021/08/17 03:11:16;;;;;;;64.53;30.75;;;;;;;12.33;100.00;101720.88;5150699;28;20375;-65
2021/08/17 03:13:47;;;;;;;58.97;31.70;;;;;;;12.35;100.00;101714.56;5152692;28;20090;-66
2021/08/17 03:16:19;;;;;;;58.95;29.05;;;;;;;12.34;100.00;101710.22;5151968;28;20331;-65
2021/08/17 03:18:51;;;;;;;60.45;31.17;;;;;;;12.34;100.00;101706.75;5152552;28;20126;-65
2021/08/17 03:21:23;;;;;;;60.75;30.58;;;;;;;12.34;100.00;101712.84;5152599;29;20028;-65
2021/08/17 03:23:54;;;;;;;59.95;29.60;;;;;;;12.36;100.00;101704.88;5150697;29;20110;-66
2021/08/17 03:26:26;;;;;;;57.05;29.52;;;;;;;12.35;100.00;101704.03;5152522;28;20396;-66
2021/08/17 03:28:57;;;;;;;60.97;29.58;;;;;;;12.33;100.00;101702.47;5152823;28;20389;-66
2021/08/17 03:31:29;;;;;;;58.92;30.40;;;;;;;12.33;100.00;101699.84;5152306;28;20039;-66
2021/08/17 03:34:01;;;;;;;62.95;29.85;;;;;;;12.34;100.00;101704.97;5151404;28;20454;-66
2021/08/17 03:36:32;;;;;;;63.08;30.52;;;;;;;12.33;100.00;101694.59;5151591;28;20027;-66
2021/08/17 03:39:04;;;;;;;60.17;30.17;;;;;;;12.31;100.00;101699.13;5152485;29;20039;-66
2021/08/17 03:41:35;;;;;;;61.40;30.08;;;;;;;12.31;100.00;101697.34;5150909;28;20019;-66
2021/08/17 03:44:06;;;;;;;60.97;30.25;;;;;;;12.29;100.00;101703.69;5152590;28;20496;-66
2021/08/17 03:46:38;;;;;;;56.05;28.80;;;;;;;12.31;100.00;101688.59;5151920;28;20023;-66
2021/08/17 03:49:09;;;;;;;60.13;31.70;;;;;;;12.29;100.00;101688.75;5152057;28;20034;-65
2021/08/17 03:51:40;;;;;;;60.17;30.25;;;;;;;12.26;100.00;101683.72;5150566;28;20557;-66
2021/08/17 03:54:11;;;;;;;53.95;28.40;;;;;;;12.24;100.00;101690.91;5151653;28;20413;-66
2021/08/17 03:56:43;;;;;;;62.30;31.10;;;;;;;12.24;100.00;101683.03;5151875;28;20547;-66
2021/08/17 03:59:14;;;;;;;56.15;28.88;;;;;;;12.21;100.00;101685.88;5151539;29;20493;-66
2021/08/17 04:01:46;;;;;;;56.22;28.25;;;;;;;12.19;100.00;101682.53;5148991;28;20031;-66
2021/08/17 04:04:17;;;;;;;51.40;27.23;;;;;;;12.17;100.00;101681.81;5151298;29;20027;-66
2021/08/17 04:06:49;;;;;;;58.05;27.92;;;;;;;12.14;100.00;101685.53;5149742;28;20287;-65
2021/08/17 04:09:20;;;;;;;55.55;27.02;;;;;;;12.13;100.00;101683.03;5150706;29;20500;-66
2021/08/17 04:11:51;;;;;;;53.28;27.25;;;;;;;12.09;100.00;101673.72;5150717;29;20110;-65
2021/08/17 04:14:23;;;;;;;56.67;28.38;;;;;;;12.06;100.00;101682.66;5152801;28;20493;-65
2021/08/17 04:16:57;;;;;;;54.05;27.17;;;;;;;12.07;100.00;101683.50;5153192;28;20039;-65
2021/08/17 04:19:28;;;;;;;57.83;28.02;;;;;;;12.05;100.00;101682.78;5155835;28;20564;-65
2021/08/17 04:22:00;;;;;;;52.83;28.20;;;;;;;12.07;100.00;101689.56;5155162;28;20027;-66
2021/08/17 04:24:31;;;;;;;52.63;26.52;;;;;;;12.07;100.00;101694.81;5155729;28;20027;-65
2021/08/17 04:27:03;;;;;;;52.28;27.20;;;;;;;12.05;100.00;101706.44;5154529;29;20086;-66
2021/08/17 04:29:37;;;;;;;51.50;25.92;;;;;;;12.06;100.00;101710.72;5154723;28;20102;-65
2021/08/17 04:32:08;;;;;;;51.72;26.25;;;;;;;12.05;100.00;101709.88;5155458;28;20050;-65
2021/08/17 04:34:40;;;;;;;50.20;24.40;;;;;;;12.05;100.00;101709.88;5154283;29;20027;-66
2021/08/17 04:37:11;;;;;;;48.10;25.75;;;;;;;12.01;100.00;101710.22;5155998;28;20070;-65
2021/08/17 04:39:42;;;;;;;52.35;27.48;;;;;;;12.05;100.00;101714.31;5154880;28;20023;-65
2021/08/17 04:42:14;;;;;;;51.28;25.63;;;;;;;12.06;100.00;101718.59;5153994;29;20046;-66
2021/08/17 04:44:45;;;;;;;51.97;25.50;;;;;;;12.05;100.00;101719.56;5155327;28;20059;-66
2021/08/17 04:47:16;;;;;;;48.50;24.60;;;;;;;12.02;100.00;101706.66;5155605;28;20063;-66
2021/08/17 04:49:47;;;;;;;50.78;25.77;;;;;;;12.05;100.00;101714.31;5154352;29;20074;-65
2021/08/17 04:52:19;;;;;;;51.40;26.00;;;;;;;12.06;100.00;101706.28;5154916;28;20446;-66
2021/08/17 04:54:50;;;;;;;50.30;25.73;;;;;;;12.09;100.00;101713.13;5154879;28;20472;-65
2021/08/17 04:57:21;;;;;;;48.50;24.00;;;;;;;12.10;100.00;101717.41;5155133;29;20035;-66
2021/08/17 04:59:53;;;;;;;53.13;24.88;;;;;;;12.13;100.00;101712.75;5154779;28;20434;-65
2021/08/17 05:02:24;;;;;;;53.10;26.23;;;;;;;12.13;100.00;101714.53;5155056;28;20027;-66
2021/08/17 05:04:55;;;;;;;50.15;25.55;;;;;;;12.13;100.00;101701.41;5154527;28;20054;-66
2021/08/17 05:07:26;;;;;;;48.47;25.50;;;;;;;12.17;100.00;101715.97;5154571;28;20030;-66
2021/08/17 05:09:58;;;;;;;50.10;25.02;;;;;;;12.17;100.00;101708.09;5154877;28;20055;-66
2021/08/17 05:12:29;;;;;;;51.10;24.40;;;;;;;12.22;100.00;101726.13;5154969;28;20027;-66
2021/08/17 05:15:02;;;;;;;51.53;24.92;;;;;;;12.20;100.00;101713.13;5154708;28;20027;-66
2021/08/17 05:17:34;;;;;;;51.47;25.45;;;;;;;12.23;100.00;101715.47;5152322;29;20020;-66
2021/08/17 05:20:07;;;;;;;47.80;24.15;;;;;;;12.26;100.00;101720.50;5153597;28;20392;-66
2021/08/17 05:22:38;;;;;;;54.08;25.58;;;;;;;12.29;100.00;101720.28;5154103;29;20385;-66
2021/08/17 05:25:10;;;;;;;51.80;24.58;;;;;;;12.36;100.00;101725.88;5154403;29;20026;-66
2021/08/17 05:27:42;;;;;;;48.67;25.50;;;;;;;12.40;100.00;101728.16;5153303;28;20074;-66
2021/08/17 05:30:14;;;;;;;47.90;23.58;;;;;;;12.47;100.00;101730.31;5154046;28;20023;-66
2021/08/17 05:32:47;;;;;;;51.67;23.98;;;;;;;12.51;100.00;101726.47;5154875;28;20095;-66
2021/08/17 05:35:18;;;;;;;51.03;25.20;;;;;;;12.55;100.00;101727.91;5153751;29;20451;-66
2021/08/17 05:37:50;;;;;;;46.25;24.85;;;;;;;12.57;100.00;101733.88;5153345;28;20035;-66
2021/08/17 05:40:21;;;;;;;49.63;23.55;;;;;;;12.62;100.00;101729.94;5153674;28;20031;-66
2021/08/17 05:42:52;;;;;;;47.53;24.02;;;;;;;12.68;100.00;101741.75;5155469;28;20023;-65
2021/08/17 05:45:23;;;;;;;47.60;24.25;;;;;;;12.73;100.00;101733.47;5153210;28;20145;-66
2021/08/17 05:47:55;;;;;;;50.97;23.35;;;;;;;12.75;100.00;101736.84;5154266;28;20039;-66
2021/08/17 05:50:26;;;;;;;47.28;22.92;;;;;;;12.81;100.00;101731.94;5153825;28;20389;-66
2021/08/17 05:52:58;;;;;;;46.65;23.65;;;;;;;12.86;100.00;101729.75;5153921;28;20416;-66
2021/08/17 05:55:29;;;;;;;46.05;23.08;;;;;;;12.90;100.00;101730.34;5152025;29;20485;-66
2021/08/17 05:58:03;;;;;;;47.75;22.88;;;;;;;12.94;100.00;101726.50;5153331;28;20478;-66
2021/08/17 06:00:34;;;;;;;47.67;23.55;;;;;;;12.98;100.00;101722.66;5153643;28;20106;-66
2021/08/17 06:03:05;;;;;;;43.53;22.92;;;;;;;13.01;100.00;101727.69;5152903;28;20027;-66
2021/08/17 06:05:37;;;;;;;46.25;23.65;;;;;;;13.04;100.00;101727.44;5151505;28;20046;-66
2021/08/17 06:08:09;;;;;;;43.53;22.63;;;;;;;13.09;100.00;101721.81;5150683;28;20038;-66
2021/08/17 06:10:42;;;;;;;46.72;23.40;;;;;;;13.10;100.00;101711.13;5152231;29;20038;-66
2021/08/17 06:13:13;;;;;;;42.55;22.45;;;;;;;13.11;100.00;101707.56;5154243;28;20110;-66
2021/08/17 06:15:45;;;;;;;45.00;21.95;;;;;;;13.15;100.00;101710.78;5151390;28;20121;-67
2021/08/17 06:18:16;;;;;;;43.72;23.77;;;;;;;13.16;100.00;101717.72;5150301;28;20035;-66
2021/08/17 06:20:47;;;;;;;45.15;23.35;;;;;;;13.22;100.00;101717.22;5148432;28;20066;-67
2021/08/17 06:23:19;;;;;;;46.63;23.98;;;;;;;13.22;100.00;101711.97;5147063;28;20023;-66
2021/08/17 06:25:50;;;;;;;44.10;23.65;;;;;;;13.29;100.00;101713.13;5144332;28;20775;-66
2021/08/17 06:28:21;;;;;;;45.00;23.95;;;;;;;13.34;100.00;101699.63;5151474;28;20516;-66
2021/08/17 06:30:53;;;;;;;52.70;26.00;;;;;;;13.38;100.00;101707.13;5152244;28;20054;-67
2021/08/17 06:33:24;;;;;;;47.33;24.88;;;;;;;13.41;100.00;101692.03;5151889;28;20078;-67
2021/08/17 06:35:55;;;;;;;44.38;24.42;;;;;;;13.45;100.00;101698.69;5152040;28;20085;-66
2021/08/17 06:38:27;;;;;;;45.42;23.05;;;;;;;13.49;100.00;101695.69;5152229;28;20027;-67
2021/08/17 06:40:58;;;;;;;46.92;24.52;;;;;;;13.50;100.00;101701.81;5148569;28;20023;-67
2021/08/17 06:43:29;;;;;;;43.60;24.55;;;;;;;13.55;100.00;101696.97;5147556;28;20023;-67
2021/08/17 06:46:01;;;;;;;48.60;25.50;;;;;;;13.54;100.00;101695.31;5150913;28;20027;-66
2021/08/17 06:48:32;;;;;;;44.22;24.58;;;;;;;13.57;100.00;101695.91;5151596;28;20027;-66
2021/08/17 06:51:04;;;;;;;45.47;23.55;;;;;;;13.63;100.00;101694.53;5150958;28;20034;-66
2021/08/17 06:53:36;;;;;;;50.80;24.77;;;;;;;13.69;100.00;101691.38;5150610;28;20030;-66
2021/08/17 06:56:08;;;;;;;42.53;23.73;;;;;;;13.77;100.00;101691.56;5146328;28;20019;-66
2021/08/17 06:58:39;;;;;;;42.95;24.05;;;;;;;13.84;100.00;101698.00;5148915;28;20872;-66
2021/08/17 07:01:11;;;;;;;42.83;23.63;;;;;;;13.87;100.00;101720.59;5150478;28;20045;-66
2021/08/17 07:03:42;;;;;;;42.28;23.67;;;;;;;13.94;100.00;101723.53;5149339;28;20054;-66
2021/08/17 07:06:13;;;;;;;42.53;23.73;;;;;;;13.96;100.00;101725.09;5151159;28;20553;-66
2021/08/17 07:08:45;;;;;;;44.05;23.40;;;;;;;14.06;100.00;101735.69;5149658;28;20032;-66
2021/08/17 07:11:16;;;;;;;41.80;22.05;;;;;;;14.09;100.00;101730.13;5149048;28;20039;-66
2021/08/17 07:13:47;;;;;;;36.85;21.52;;;;;;;14.16;100.00;101733.91;5150066;28;20756;-66
2021/08/17 07:16:19;;;;;;;38.90;22.08;;;;;;;14.22;100.00;101743.94;5149668;28;20050;-66
2021/08/17 07:18:50;;;;;;;41.35;23.23;;;;;;;14.24;100.00;101739.34;5149528;28;20042;-67
2021/08/17 07:21:21;;;;;;;36.83;20.95;;;;;;;14.32;100.00;101738.72;5149075;28;20023;-67
2021/08/17 07:23:53;;;;;;;37.00;21.08;;;;;;;14.41;100.00;101726.53;5149111;28;20024;-67
2021/08/17 07:26:24;;;;;;;37.00;20.67;;;;;;;14.45;100.00;101725.31;5150124;28;20034;-66
2021/08/17 07:28:55;;;;;;;41.50;21.83;;;;;;;14.48;100.00;101717.97;5148731;28;20073;-66
2021/08/17 07:31:26;;;;;;;35.45;20.38;;;;;;;14.54;100.00;101740.34;5146386;28;20125;-67
2021/08/17 07:33:58;;;;;;;37.10;20.08;;;;;;;14.60;100.00;101750.38;5148599;29;20035;-67
2021/08/17 07:36:30;;;;;;;36.10;19.55;;;;;;;14.77;100.00;101752.38;5146119;28;20067;-66
2021/08/17 07:39:03;;;;;;;37.55;19.25;;;;;;;14.83;100.00;101751.81;5149039;28;20034;-66
2021/08/17 07:41:35;;;;;;;30.85;18.55;;;;;;;14.86;100.00;101740.16;5149972;28;20019;-66
2021/08/17 07:44:07;;;;;;;32.80;18.98;;;;;;;14.92;100.00;101721.13;5148915;28;20110;-67
2021/08/17 07:46:38;;;;;;;31.27;17.83;;;;;;;15.07;100.00;101703.09;5146516;28;20037;-66
2021/08/17 07:49:09;;;;;;;32.67;17.60;;;;;;;15.09;100.00;101685.31;5146653;28;20474;-67
2021/08/17 07:51:41;;;;;;;34.63;18.13;;;;;;;15.19;100.00;101685.28;5148642;28;20393;-67
2021/08/17 07:54:12;;;;;;;32.58;17.30;;;;;;;15.26;100.00;101695.16;5145437;28;20027;-67
2021/08/17 07:56:43;;;;;;;30.05;17.38;;;;;;;15.40;100.00;101706.28;5149354;28;20589;-67
2021/08/17 07:59:14;;;;;;;31.30;17.02;;;;;;;15.44;100.00;101712.94;5149494;28;20412;-67
2021/08/17 08:01:46;;;;;;;29.08;15.85;;;;;;;15.51;100.00;101706.13;5145987;28;20027;-67
2021/08/17 08:04:17;;;;;;;29.17;16.08;;;;;;;15.61;100.00;101704.31;5149574;28;20037;-67
2021/08/17 08:06:49;;;;;;;24.95;14.85;;;;;;;15.63;100.00;101707.63;5150101;28;20449;-67
2021/08/17 08:09:20;;;;;;;24.30;15.63;;;;;;;15.62;100.00;101697.22;5147477;28;20050;-67
2021/08/17 08:11:51;;;;;;;23.98;14.98;;;;;;;15.70;100.00;101694.72;5149946;28;20093;-67
2021/08/17 08:14:23;;;;;;;23.38;14.95;;;;;;;15.77;100.00;101695.81;5150864;29;20496;-67
2021/08/17 08:16:58;;;;;;;25.17;14.07;;;;;;;15.85;100.00;101685.38;5150918;28;20540;-67
2021/08/17 08:19:29;;;;;;;25.65;13.80;;;;;;;15.88;100.00;101686.91;5148484;28;20031;-67
2021/08/17 08:22:00;;;;;;;21.45;13.45;;;;;;;15.98;100.00;101688.50;5150013;28;20065;-67
2021/08/17 08:24:32;;;;;;;19.45;12.63;;;;;;;16.01;100.00;101693.50;5147905;28;20043;-67
2021/08/17 08:27:05;;;;;;;22.85;13.73;;;;;;;16.13;100.00;101710.03;5147822;28;20023;-67
2021/08/17 08:29:36;;;;;;;26.75;14.23;;;;;;;16.33;100.00;101715.22;5146729;28;20039;-67
2021/08/17 08:32:08;;;;;;;24.05;13.98;;;;;;;16.59;100.00;101715.38;5148487;28;20067;-67
2021/08/17 08:34:39;;;;;;;23.98;13.13;;;;;;;16.82;100.00;101715.81;5149736;28;20023;-67
2021/08/17 08:37:10;;;;;;;21.17;13.27;;;;;;;16.97;100.00;101701.06;5143545;28;20091;-67
2021/08/17 08:39:42;;;;;;;20.85;13.05;;;;;;;17.01;100.00;101705.94;5147138;28;20114;-67
2021/08/17 08:42:13;;;;;;;21.77;13.32;;;;;;;16.99;100.00;101696.47;5150834;28;20323;-67
2021/08/17 08:44:45;;;;;;;19.65;12.95;;;;;;;17.01;100.00;101700.66;5148614;28;20493;-67
2021/08/17 08:47:17;;;;;;;18.60;11.85;;;;;;;16.94;100.00;101694.28;5150646;28;20328;-67
2021/08/17 08:49:51;;;;;;;19.70;12.18;;;;;;;16.93;100.00;101705.00;5149220;28;20032;-67
2021/08/17 08:52:23;;;;;;;21.40;12.65;;;;;;;16.90;100.00;101713.28;5142973;28;20043;-67
2021/08/17 08:54:54;;;;;;;19.35;12.45;;;;;;;16.85;100.00;101710.22;5144839;28;20568;-67
2021/08/17 08:57:25;;;;;;;19.33;13.07;;;;;;;16.87;100.00;101705.63;5150552;28;20111;-67
2021/08/17 08:59:57;;;;;;;17.83;11.88;;;;;;;16.88;100.00;101708.13;5148623;28;20493;-67
2021/08/17 09:02:30;;;;;;;20.02;12.38;;;;;;;16.75;100.00;101705.84;5150363;28;20511;-67
2021/08/17 09:05:02;;;;;;;;;;;;;;;17.02;100.00;101712.88;5154075;28;20320;-67
2021/08/17 09:07:46;;;;;;;18.98;11.57;;;;;;;16.85;100.00;101718.16;5151138;29;19922;-67
2021/08/17 09:10:26;;;;;;;17.63;11.52;;;;;;;16.76;100.00;101714.63;5151214;28;20027;-67
2021/08/17 09:13:00;;;;;;;16.20;10.77;;;;;;;16.63;100.00;101712.31;5149979;28;20114;-67
2021/08/17 09:15:34;;;;;;;14.18;10.40;;;;;;;16.66;100.00;101727.03;5151463;28;20031;-68
2021/08/17 09:18:10;;;;;;;15.45;10.18;;;;;;;16.61;100.00;101729.28;5152020;28;20501;-67
2021/08/17 09:20:47;;;;;;;20.83;12.35;;;;;;;16.60;100.00;101731.13;5147328;28;20027;-67
2021/08/17 09:23:22;;;;;;;20.10;11.60;;;;;;;16.63;100.00;101738.75;5151653;28;20117;-67
2021/08/17 09:25:58;;;;;;;18.40;11.25;;;;;;;16.62;100.00;101729.13;5145188;28;20039;-67
2021/08/17 09:28:35;;;;;;;16.13;10.82;;;;;;;16.67;100.00;101740.13;5151382;28;20389;-67
2021/08/17 09:31:36;;;;;;;18.17;10.98;;;;;;;16.68;100.00;101747.06;5144144;28;20046;-67
2021/08/17 09:34:10;;;;;;;14.77;10.40;;;;;;;16.58;100.00;101754.22;5151084;28;20027;-67
2021/08/17 09:36:44;;;;;;;16.33;10.05;;;;;;;16.58;100.00;101753.41;5150872;28;20038;-67
2021/08/17 09:39:28;;;;;;;17.52;11.57;;;;;;;16.57;100.00;101743.81;5151568;28;20031;-67
2021/08/17 09:42:07;;;;;;;18.30;10.48;;;;;;;16.53;100.00;101730.03;5149453;28;20042;-67
2021/08/17 09:44:43;;;;;;;21.50;11.98;;;;;;;16.50;100.00;101727.69;5151257;28;20394;-67
2021/08/17 09:47:14;;;;;;;17.48;10.43;;;;;;;16.38;100.00;101719.09;5148425;28;20105;-67
2021/08/17 09:49:45;;;;;;;14.18;9.68;;;;;;;16.31;100.00;101723.31;5148277;28;20031;-67
2021/08/17 09:52:17;;;;;;;12.95;8.95;;;;;;;16.29;100.00;101726.13;5150079;28;20043;-67
2021/08/17 09:54:49;;;;;;;14.32;9.25;;;;;;;16.22;100.00;101714.44;5150190;28;20030;-67
2021/08/17 09:57:20;;;;;;;14.47;8.97;;;;;;;16.20;100.00;101716.41;5146008;28;20319;-67
2021/08/17 09:59:51;;;;;;;16.52;10.60;;;;;;;16.16;100.00;101717.66;5151344;28;20103;-67
2021/08/17 10:02:24;;;;;;;14.20;9.55;;;;;;;16.16;100.00;101711.53;5149688;28;20027;-67
2021/08/17 10:04:55;;;;;;;16.00;10.25;;;;;;;16.14;100.00;101716.13;5151378;28;20032;-67
2021/08/17 10:07:26;;;;;;;17.98;11.63;;;;;;;16.16;100.00;101715.03;5151397;28;20034;-66
2021/08/17 10:09:59;;;;;;;18.08;10.23;;;;;;;16.24;100.00;101717.75;5151278;28;20078;-67
2021/08/17 10:12:31;;;;;;;18.70;9.63;;;;;;;16.24;100.00;101724.88;5150269;29;20470;-67
2021/08/17 10:15:07;;;;;;;20.27;10.68;;;;;;;16.24;100.00;101720.41;5151234;28;20023;-67
2021/08/17 10:17:39;;;;;;;18.50;10.40;;;;;;;16.16;100.00;101719.47;5150634;28;20505;-67
2021/08/17 10:20:11;;;;;;;14.90;10.30;;;;;;;16.17;100.00;101718.50;5152135;28;20038;-68
2021/08/17 10:22:43;;;;;;;18.00;10.98;;;;;;;16.05;100.00;101712.56;5151729;28;20038;-67
2021/08/17 10:25:17;;;;;;;16.10;10.20;;;;;;;16.08;100.00;101707.00;5149412;28;20059;-67
2021/08/17 10:27:49;;;;;;;17.27;10.20;;;;;;;16.00;100.00;101720.94;5145917;28;20389;-67
2021/08/17 10:30:22;;;;;;;13.05;9.48;;;;;;;15.99;100.00;101711.34;5151135;28;20026;-69
2021/08/17 10:33:00;;;;;;;16.35;9.38;;;;;;;15.97;100.00;101708.00;5149751;28;20027;-67
2021/08/17 10:35:51;;;;;;;14.52;9.18;;;;;;;15.95;100.00;101698.56;5150479;28;20060;-67
2021/08/17 10:38:25;;;;;;;16.52;10.75;;;;;;;15.97;100.00;101696.59;5151473;28;20019;-68
2021/08/17 10:40:56;;;;;;;15.77;9.77;;;;;;;15.96;100.00;101692.28;5146977;28;20040;-68
2021/08/17 10:43:27;;;;;;;16.07;9.77;;;;;;;15.98;100.00;101685.88;5149709;28;20051;-68
2021/08/17 10:46:00;;;;;;;16.67;9.52;;;;;;;16.05;100.00;101691.41;5150564;28;20115;-68
2021/08/17 10:48:54;;;;;;;17.25;10.38;;;;;;;16.11;100.00;101687.38;5151835;28;20070;-68
2021/08/17 10:51:25;;;;;;;18.30;10.80;;;;;;;16.11;100.00;101679.44;5150888;28;20027;-68
2021/08/17 10:54:03;;;;;;;16.73;10.10;;;;;;;16.14;100.00;101672.06;5146831;28;20602;-68
2021/08/17 10:56:36;;;;;;;15.63;10.52;;;;;;;16.11;100.00;101677.63;5146288;28;20042;-68
2021/08/17 10:59:08;;;;;;;15.00;10.15;;;;;;;16.16;100.00;101672.72;5149054;28;20572;-68
2021/08/17 11:01:42;;;;;;;14.57;10.38;;;;;;;16.17;100.00;101681.47;5144984;28;20081;-67
2021/08/17 11:04:15;;;;;;;15.80;11.57;;;;;;;16.13;100.00;101680.94;5147691;28;20023;-68
2021/08/17 11:06:52;;;;;;;17.70;10.48;;;;;;;16.16;100.00;101674.53;5142677;28;20097;-68
2021/08/17 11:09:28;;;;;;;16.13;10.35;;;;;;;16.13;100.00;101670.38;5144709;28;20231;-68
2021/08/17 11:12:03;;;;;;;15.88;10.48;;;;;;;16.20;100.00;101676.72;5144389;28;20035;-68
2021/08/17 11:14:37;;;;;;;15.80;10.50;;;;;;;16.25;100.00;101681.56;5146366;28;20035;-68
2021/08/17 11:17:14;;;;;;;16.83;11.13;;;;;;;16.25;100.00;101685.09;5146262;28;20019;-68
2021/08/17 11:19:48;;;;;;;16.33;10.27;;;;;;;16.27;100.00;101683.09;5148218;28;20034;-68
2021/08/17 11:22:25;;;;;;;15.15;10.73;;;;;;;16.40;100.00;101681.91;5146560;28;20042;-68
2021/08/17 11:24:59;;;;;;;14.63;10.50;;;;;;;16.29;100.00;101678.50;5148323;28;20422;-68